Aniak, Alaska
Current Conditions -  °F | °C
As of 6:16 PM on Monday 26 Jan 2015 (Local Time) from PANI Reporting Station
Few Clouds Few Clouds  
Wind Chill: -13°   Ceiling: Unl
Heat Index: -13°   Visibility: 10mi
Dew Point: -22°   Wind: 3mph
Humidity: 64%   Direction: 30°NNE
Pressure: 29.95"   Gusts: NA
Location:  61.58°N, 159.54°W
Report Text: PANI 270316Z 03003KT 10SM FEW110 M25/M30 A2995 RMK AO1
Loading
Personal Weather Stations






























Interactive Weather Map New forecast layout! Learn more

10-Day Weather Forecast

Advertisements
Track Severe Weather on mobile